createdAt,value
2018-08-07T00:02:22.542Z,26.60
2018-08-07T00:04:51.153Z,26.60
2018-08-07T00:07:18.653Z,26.60
2018-08-07T00:09:46.137Z,26.60
2018-08-07T00:12:16.520Z,26.60
2018-08-07T00:14:44.008Z,26.60
2018-08-07T00:17:11.508Z,26.60
2018-08-07T00:19:38.992Z,26.60
2018-08-07T00:22:06.537Z,26.60
2018-08-07T00:24:34.040Z,26.60
2018-08-07T00:27:01.521Z,26.60
2018-08-07T00:29:29.001Z,26.60
2018-08-07T00:31:56.486Z,26.60
2018-08-07T00:34:24.036Z,26.60
2018-08-07T00:36:51.528Z,26.60
2018-08-07T00:39:19.032Z,26.60
2018-08-07T00:41:46.512Z,26.60
2018-08-07T00:44:14.005Z,26.60
2018-08-07T00:46:41.495Z,26.60
2018-08-07T00:49:08.968Z,26.60
2018-08-07T00:54:24.656Z,26.60
2018-08-07T00:59:30.534Z,26.60
2018-08-07T01:01:58.028Z,26.60
2018-08-07T01:04:25.563Z,26.60
2018-08-07T01:06:53.120Z,26.60
2018-08-07T01:09:20.608Z,26.60
2018-08-07T01:11:48.084Z,26.60
2018-08-07T01:14:15.580Z,26.60
2018-08-07T01:19:10.490Z,26.60
2018-08-07T01:21:39.040Z,26.60
2018-08-07T01:24:06.531Z,26.60
2018-08-07T01:31:45.368Z,26.60
2018-08-07T01:34:13.471Z,26.60
2018-08-07T01:36:40.960Z,26.60
2018-08-07T01:41:53.031Z,26.60
2018-08-07T01:44:20.529Z,26.60
2018-08-07T01:46:48.020Z,26.60
2018-08-07T01:49:15.520Z,26.50
2018-08-07T01:51:43.012Z,26.50
2018-08-07T01:54:10.521Z,26.60
2018-08-07T01:56:37.999Z,26.60
2018-08-07T01:59:05.476Z,26.60
2018-08-07T02:01:32.949Z,26.50
2018-08-07T02:04:00.449Z,26.60
2018-08-07T02:06:30.064Z,26.60
2018-08-07T02:08:57.580Z,26.60
2018-08-07T02:11:25.068Z,26.60
2018-08-07T02:13:52.548Z,26.50
2018-08-07T02:16:20.051Z,26.50
2018-08-07T02:18:47.563Z,26.50
2018-08-07T02:21:15.057Z,26.60
2018-08-07T02:23:42.552Z,26.60
2018-08-07T02:26:10.060Z,26.60
2018-08-07T02:28:39.441Z,26.50
2018-08-07T02:31:06.942Z,26.50
2018-08-07T02:33:34.452Z,26.60
2018-08-07T02:36:01.939Z,26.60
2018-08-07T02:38:29.428Z,26.60
2018-08-07T02:41:00.940Z,26.60
2018-08-07T02:43:28.434Z,26.60
2018-08-07T02:45:55.947Z,26.50
2018-08-07T02:48:23.431Z,26.50
2018-08-07T02:50:50.909Z,26.50
2018-08-07T02:55:56.712Z,26.50
2018-08-07T02:58:24.216Z,26.60
2018-08-07T03:00:51.740Z,26.50
2018-08-07T03:03:19.224Z,26.50
2018-08-07T03:05:46.927Z,26.60
2018-08-07T03:08:22.144Z,26.50
2018-08-07T03:10:49.620Z,26.50
2018-08-07T03:13:17.120Z,26.50
2018-08-07T03:15:44.610Z,26.50
2018-08-07T03:18:12.100Z,26.50
2018-08-07T03:20:39.584Z,26.50
2018-08-07T03:23:07.064Z,26.50
2018-08-07T03:25:34.557Z,26.50
2018-08-07T03:28:02.069Z,26.50
2018-08-07T03:30:29.573Z,26.50
2018-08-07T03:32:57.079Z,26.50
2018-08-07T03:35:24.590Z,26.50
2018-08-07T03:37:52.089Z,26.50
2018-08-07T03:40:20.283Z,26.50
2018-08-07T03:42:47.829Z,26.50
2018-08-07T03:45:16.457Z,26.50
2018-08-07T03:47:44.794Z,26.50
2018-08-07T03:52:45.335Z,26.50
2018-08-07T03:55:14.228Z,26.50
2018-08-07T03:57:47.027Z,26.50
2018-08-07T04:00:15.996Z,26.50
2018-08-07T04:02:43.489Z,26.50
2018-08-07T04:07:38.574Z,26.50
2018-08-07T04:10:07.409Z,26.50
2018-08-07T04:12:50.307Z,26.50
2018-08-07T04:15:20.227Z,26.50
2018-08-07T04:17:47.717Z,26.50
2018-08-07T04:20:16.422Z,26.50
2018-08-07T04:22:43.901Z,26.50
2018-08-07T04:25:11.380Z,26.50
2018-08-07T04:27:38.944Z,26.50
2018-08-07T04:30:09.379Z,26.50
2018-08-07T04:32:36.872Z,26.50
2018-08-07T04:35:04.440Z,26.50
2018-08-07T04:37:45.017Z,26.50
2018-08-07T04:42:40.448Z,26.50
2018-08-07T04:45:11.505Z,26.50
2018-08-07T04:47:38.975Z,26.50
2018-08-07T04:50:07.036Z,26.40
2018-08-07T04:52:34.519Z,26.50
2018-08-07T04:55:02.013Z,26.50
2018-08-07T04:57:29.545Z,26.50
2018-08-07T04:59:57.061Z,26.50
2018-08-07T05:05:09.273Z,26.50
2018-08-07T05:07:36.904Z,26.50
2018-08-07T05:10:05.432Z,26.50
2018-08-07T05:12:32.957Z,26.50
2018-08-07T05:15:14.669Z,26.50
2018-08-07T05:17:43.355Z,26.40
2018-08-07T05:20:27.089Z,26.50
2018-08-07T05:22:54.603Z,26.40
2018-08-07T05:25:22.087Z,26.50
2018-08-07T05:27:49.585Z,26.40
2018-08-07T05:30:17.416Z,26.40
2018-08-07T05:32:45.168Z,26.40
2018-08-07T05:35:13.756Z,26.40
2018-08-07T05:37:41.413Z,26.40
2018-08-07T05:40:09.916Z,26.40
2018-08-07T05:42:37.456Z,26.40
2018-08-07T05:45:05.552Z,26.10
2018-08-07T05:47:47.367Z,25.90
2018-08-07T05:50:18.509Z,25.70
2018-08-07T05:52:45.956Z,25.70
2018-08-07T05:55:13.441Z,25.60
2018-08-07T05:57:40.900Z,25.50
2018-08-07T06:00:09.797Z,25.40
2018-08-07T06:02:37.255Z,25.30
2018-08-07T06:05:05.021Z,25.10
2018-08-07T06:07:32.534Z,25.10
2018-08-07T06:10:00.005Z,25.10
2018-08-07T06:12:27.524Z,25.20
2018-08-07T06:14:55.007Z,25.20
2018-08-07T06:17:22.499Z,25.30
2018-08-07T06:22:34.177Z,25.20
2018-08-07T06:25:01.644Z,25.10
2018-08-07T06:27:29.132Z,25.10
2018-08-07T06:29:56.700Z,25.10
2018-08-07T06:32:24.192Z,25.20
2018-08-07T06:34:51.716Z,25.20
2018-08-07T06:37:29.705Z,25.30
2018-08-07T06:40:13.698Z,25.40
2018-08-07T06:42:41.177Z,25.50
2018-08-07T06:45:09.296Z,25.60
2018-08-07T06:47:36.985Z,25.70
2018-08-07T06:50:12.177Z,25.70
2018-08-07T06:52:46.316Z,25.70
2018-08-07T06:57:57.929Z,25.80
2018-08-07T07:00:25.890Z,25.90
2018-08-07T07:02:53.884Z,25.90
2018-08-07T07:05:21.456Z,25.90
2018-08-07T07:12:53.026Z,26.00
2018-08-07T07:15:20.500Z,26.00
2018-08-07T07:17:48.448Z,26.00
2018-08-07T07:20:16.777Z,26.00
2018-08-07T07:22:45.155Z,26.00
2018-08-07T07:25:12.830Z,26.10
2018-08-07T07:27:41.163Z,26.10
2018-08-07T07:32:55.032Z,26.10
2018-08-07T07:35:33.649Z,26.10
2018-08-07T07:38:01.167Z,26.10
2018-08-07T07:40:28.628Z,26.10
2018-08-07T07:42:56.145Z,26.20
2018-08-07T07:45:23.700Z,26.20
2018-08-07T07:47:51.155Z,26.20
2018-08-07T07:52:47.953Z,26.20
2018-08-07T07:55:15.960Z,26.20
2018-08-07T07:57:43.509Z,26.20
2018-08-07T08:02:38.209Z,26.30
2018-08-07T08:05:06.070Z,26.20
2018-08-07T08:07:33.565Z,26.30
2018-08-07T08:10:01.105Z,26.20
2018-08-07T08:12:28.604Z,26.20
2018-08-07T08:14:56.121Z,26.30
2018-08-07T08:17:23.852Z,26.30
2018-08-07T08:19:56.960Z,26.30
2018-08-07T08:22:24.489Z,26.30
2018-08-07T08:24:52.127Z,26.30
2018-08-07T08:27:19.652Z,26.30
2018-08-07T08:29:47.146Z,26.30
2018-08-07T08:34:59.782Z,26.30
2018-08-07T08:37:27.512Z,26.30
2018-08-07T08:39:55.281Z,26.30
2018-08-07T08:42:22.761Z,26.30
2018-08-07T08:44:50.845Z,26.30
2018-08-07T08:47:18.388Z,26.30
2018-08-07T08:49:46.022Z,26.30
2018-08-07T08:52:13.565Z,26.30
2018-08-07T08:54:41.182Z,26.30
2018-08-07T08:57:08.813Z,26.30
2018-08-07T08:59:36.334Z,26.30
2018-08-07T09:02:03.861Z,26.30
2018-08-07T09:04:31.742Z,26.30
2018-08-07T09:06:59.234Z,26.30
2018-08-07T09:09:26.709Z,26.40
2018-08-07T09:11:54.227Z,26.40
2018-08-07T09:14:21.681Z,26.40
2018-08-07T09:16:49.360Z,26.40
2018-08-07T09:22:02.161Z,26.40
2018-08-07T09:24:31.766Z,26.40
2018-08-07T09:26:59.928Z,26.40
2018-08-07T09:29:27.420Z,26.40
2018-08-07T09:31:57.990Z,26.40
2018-08-07T09:34:27.994Z,26.30
2018-08-07T09:36:56.386Z,26.40
2018-08-07T09:39:25.396Z,26.40
2018-08-07T09:41:53.969Z,26.40
2018-08-07T09:44:24.122Z,26.40
2018-08-07T09:46:53.534Z,26.40
2018-08-07T09:49:22.644Z,26.40
2018-08-07T09:51:50.632Z,26.40
2018-08-07T09:54:19.109Z,26.40
2018-08-07T09:56:47.916Z,26.40
2018-08-07T09:59:16.496Z,26.40
2018-08-07T10:01:50.179Z,26.30
2018-08-07T10:04:18.528Z,26.40
2018-08-07T10:06:46.785Z,26.40
2018-08-07T10:09:14.322Z,26.40
2018-08-07T10:11:41.780Z,26.40
2018-08-07T10:16:54.122Z,26.40
2018-08-07T10:19:21.732Z,26.40
2018-08-07T10:21:51.556Z,26.40
2018-08-07T10:24:20.939Z,26.40
2018-08-07T10:26:50.089Z,26.30
2018-08-07T10:29:18.088Z,26.40
2018-08-07T10:31:45.635Z,26.40
2018-08-07T10:34:14.797Z,26.40
2018-08-07T10:36:43.859Z,26.40
2018-08-07T10:39:11.743Z,26.40
2018-08-07T10:41:41.015Z,26.40
2018-08-07T10:44:08.975Z,26.40
2018-08-07T10:46:36.809Z,26.40
2018-08-07T10:49:06.842Z,26.40
2018-08-07T10:51:34.758Z,26.40
2018-08-07T10:54:02.243Z,26.40
2018-08-07T10:56:30.092Z,26.40
2018-08-07T11:01:42.252Z,26.50
2018-08-07T11:04:10.211Z,26.50
2018-08-07T11:06:38.581Z,26.40
2018-08-07T11:09:08.284Z,26.40
2018-08-07T11:11:40.026Z,26.40
2018-08-07T11:14:08.260Z,26.50
2018-08-07T11:16:36.522Z,26.50
2018-08-07T11:19:04.463Z,26.50
2018-08-07T11:21:33.927Z,26.40
2018-08-07T11:24:04.381Z,26.40
2018-08-07T11:26:33.505Z,26.40
2018-08-07T11:31:45.392Z,26.50
2018-08-07T11:34:13.090Z,26.50
2018-08-07T11:39:10.891Z,26.50
2018-08-07T11:41:38.885Z,26.50
2018-08-07T11:44:07.173Z,26.50
2018-08-07T11:46:35.505Z,26.50
2018-08-07T11:49:03.484Z,26.50
2018-08-07T11:51:33.378Z,26.50
2018-08-07T11:54:01.409Z,26.50
2018-08-07T11:56:29.367Z,26.50
2018-08-07T11:58:57.372Z,26.50
2018-08-07T12:01:25.279Z,26.50
2018-08-07T12:03:53.214Z,26.50
2018-08-07T12:06:21.139Z,26.50
2018-08-07T12:08:49.059Z,26.50
2018-08-07T12:11:17.156Z,26.50
2018-08-07T12:13:46.529Z,26.40
2018-08-07T12:16:14.386Z,26.50
2018-08-07T12:18:42.344Z,26.50
2018-08-07T12:21:10.489Z,26.50
2018-08-07T12:23:39.375Z,26.50
2018-08-07T12:26:07.243Z,26.50
2018-08-07T12:28:35.083Z,26.50
2018-08-07T12:31:03.418Z,26.50
2018-08-07T12:33:31.303Z,26.50
2018-08-07T12:35:59.148Z,26.50
2018-08-07T12:38:27.230Z,26.50
2018-08-07T12:40:55.228Z,26.50
2018-08-07T12:43:23.258Z,26.50
2018-08-07T12:45:51.165Z,26.40
2018-08-07T12:48:18.724Z,26.50
2018-08-07T12:50:47.066Z,26.50
2018-08-07T12:53:15.009Z,26.50
2018-08-07T12:55:43.157Z,26.50
2018-08-07T13:00:38.327Z,26.50
2018-08-07T13:03:06.250Z,26.50
2018-08-07T13:05:34.029Z,26.50
2018-08-07T13:08:02.094Z,26.50
2018-08-07T13:10:30.315Z,26.50
2018-08-07T13:12:58.182Z,26.50
2018-08-07T13:15:26.076Z,26.50
2018-08-07T13:17:54.140Z,26.50
2018-08-07T13:20:22.135Z,26.50
2018-08-07T13:22:50.034Z,26.50
2018-08-07T13:25:19.747Z,26.50
2018-08-07T13:27:47.638Z,26.50
2018-08-07T13:30:18.338Z,26.50
2018-08-07T13:32:46.460Z,26.50
2018-08-07T13:35:14.549Z,26.50
2018-08-07T13:37:43.592Z,26.50
2018-08-07T13:40:13.140Z,26.50
2018-08-07T13:42:41.157Z,26.50
2018-08-07T13:45:10.097Z,26.50
2018-08-07T13:47:38.384Z,26.50
2018-08-07T13:50:07.692Z,26.50
2018-08-07T13:52:35.590Z,26.50
2018-08-07T13:55:03.385Z,26.50
2018-08-07T13:57:30.953Z,26.50
2018-08-07T13:59:58.846Z,26.50
2018-08-07T14:02:26.696Z,26.50
2018-08-07T14:04:55.148Z,26.50
2018-08-07T14:07:23.296Z,26.60
2018-08-07T14:10:08.040Z,26.60
2018-08-07T14:12:35.987Z,26.60
2018-08-07T14:15:04.043Z,26.60
2018-08-07T14:17:31.980Z,26.60
2018-08-07T14:19:59.637Z,26.50
2018-08-07T14:22:27.631Z,26.60
2018-08-07T14:24:55.642Z,26.50
2018-08-07T14:27:23.941Z,26.50
2018-08-07T14:32:36.313Z,26.60
2018-08-07T14:35:04.265Z,26.50
2018-08-07T14:37:32.216Z,26.60
2018-08-07T14:40:00.209Z,26.60
2018-08-07T14:42:27.905Z,26.60
2018-08-07T14:44:55.977Z,26.60
2018-08-07T14:47:24.426Z,26.60
2018-08-07T14:49:51.908Z,26.60
2018-08-07T14:52:19.877Z,26.60
2018-08-07T14:54:48.134Z,26.60
2018-08-07T14:57:16.200Z,26.60
2018-08-07T14:59:44.158Z,26.60
2018-08-07T15:02:11.648Z,26.60
2018-08-07T15:04:39.619Z,26.60
2018-08-07T15:07:07.572Z,26.60
2018-08-07T15:09:35.434Z,26.60
2018-08-07T15:12:03.251Z,26.60
2018-08-07T15:14:31.237Z,26.60
2018-08-07T15:16:59.261Z,26.60
2018-08-07T15:19:27.255Z,26.70
2018-08-07T15:21:55.130Z,26.60
2018-08-07T15:24:23.040Z,26.70
2018-08-07T15:26:51.154Z,26.70
2018-08-07T15:29:19.178Z,26.70
2018-08-07T15:31:47.055Z,26.70
2018-08-07T15:34:29.993Z,26.70
2018-08-07T15:36:57.807Z,26.70
2018-08-07T15:39:25.778Z,26.60
2018-08-07T15:41:53.702Z,26.60
2018-08-07T15:44:21.680Z,26.70
2018-08-07T15:46:49.707Z,26.60
2018-08-07T15:49:17.645Z,26.70
2018-08-07T15:51:45.521Z,26.60
2018-08-07T15:56:57.942Z,26.60
2018-08-07T15:59:25.413Z,26.70
2018-08-07T16:01:53.396Z,26.60
2018-08-07T16:04:21.536Z,26.70
2018-08-07T16:06:49.562Z,26.70
2018-08-07T16:09:17.595Z,26.70
2018-08-07T16:11:45.497Z,26.70
2018-08-07T16:14:13.461Z,26.70
2018-08-07T16:16:41.261Z,26.70
2018-08-07T16:21:40.434Z,26.70
2018-08-07T16:24:08.378Z,26.80
2018-08-07T16:26:36.537Z,26.70
2018-08-07T16:29:04.640Z,26.70
2018-08-07T16:34:00.019Z,26.70
2018-08-07T16:36:28.025Z,26.70
2018-08-07T16:38:56.025Z,26.70
2018-08-07T16:41:23.922Z,26.70
2018-08-07T16:43:51.778Z,26.70
2018-08-07T16:46:19.611Z,26.70
2018-08-07T16:51:15.082Z,26.70
2018-08-07T16:53:42.967Z,26.70
2018-08-07T16:56:10.800Z,26.80
2018-08-07T16:58:38.650Z,26.70
2018-08-07T17:01:06.570Z,26.80
2018-08-07T17:03:34.438Z,26.70
2018-08-07T17:06:02.437Z,26.80
2018-08-07T17:08:30.298Z,26.70
2018-08-07T17:10:58.138Z,26.70
2018-08-07T17:13:25.993Z,26.80
2018-08-07T17:15:54.086Z,26.80
2018-08-07T17:18:21.965Z,26.70
2018-08-07T17:20:49.824Z,26.80
2018-08-07T17:23:17.698Z,26.70
2018-08-07T17:25:45.809Z,26.80
2018-08-07T17:28:13.690Z,26.80
2018-08-07T17:33:26.750Z,26.70
2018-08-07T17:35:54.128Z,26.70
2018-08-07T17:38:22.080Z,26.80
2018-08-07T17:40:50.089Z,26.80
2018-08-07T17:43:17.917Z,26.80
2018-08-07T17:45:45.685Z,26.70
2018-08-07T17:48:13.571Z,26.80
2018-08-07T17:50:41.559Z,26.80
2018-08-07T17:53:09.561Z,26.80
2018-08-07T17:55:37.409Z,26.80
2018-08-07T17:58:05.281Z,26.80
2018-08-07T18:00:34.176Z,26.80
2018-08-07T18:03:02.024Z,26.80
2018-08-07T18:05:29.998Z,26.80
2018-08-07T18:07:58.532Z,26.80
2018-08-07T18:10:26.206Z,26.80
2018-08-07T18:12:54.105Z,26.80
2018-08-07T18:15:23.360Z,26.80
2018-08-07T18:17:51.711Z,26.80
2018-08-07T18:20:22.543Z,26.80
2018-08-07T18:22:50.544Z,26.80
2018-08-07T18:25:18.013Z,26.80
2018-08-07T18:27:45.957Z,26.70
2018-08-07T18:30:15.995Z,26.80
2018-08-07T18:32:44.362Z,26.80
2018-08-07T18:35:13.269Z,26.80
2018-08-07T18:37:41.011Z,26.80
2018-08-07T18:40:09.614Z,26.80
2018-08-07T18:42:37.637Z,26.80
2018-08-07T18:45:06.361Z,26.80
2018-08-07T18:47:34.365Z,26.80
2018-08-07T18:50:02.192Z,26.80
2018-08-07T18:55:14.741Z,26.80
2018-08-07T18:57:43.614Z,26.80
2018-08-07T19:00:14.227Z,26.80
2018-08-07T19:02:42.557Z,26.80
2018-08-07T19:05:11.681Z,26.80
2018-08-07T19:07:39.946Z,26.80
2018-08-07T19:10:08.240Z,26.80
2018-08-07T19:12:36.772Z,26.80
2018-08-07T19:15:05.072Z,26.80
2018-08-07T19:17:32.968Z,26.80
2018-08-07T19:20:00.826Z,26.80
2018-08-07T19:22:28.831Z,26.70
2018-08-07T19:24:57.215Z,26.80
2018-08-07T19:27:25.183Z,26.70
2018-08-07T19:29:53.094Z,26.70
2018-08-07T19:32:21.202Z,26.70
2018-08-07T19:34:49.696Z,26.70
2018-08-07T19:37:17.977Z,26.80
2018-08-07T19:39:45.955Z,26.70
2018-08-07T19:42:13.777Z,26.70
2018-08-07T19:44:41.813Z,26.70
2018-08-07T19:47:10.075Z,26.70
2018-08-07T19:49:38.199Z,26.70
2018-08-07T19:52:06.285Z,26.70
2018-08-07T19:54:34.240Z,26.70
2018-08-07T19:57:02.338Z,26.70
2018-08-07T19:59:30.278Z,26.70
2018-08-07T20:01:58.319Z,26.70
2018-08-07T20:04:26.361Z,26.70
2018-08-07T20:06:54.791Z,26.70
2018-08-07T20:09:22.776Z,26.70
2018-08-07T20:11:50.866Z,26.70
2018-08-07T20:14:18.861Z,26.70
2018-08-07T20:16:46.694Z,26.70
2018-08-07T20:19:14.643Z,26.70
2018-08-07T20:21:42.564Z,26.70
2018-08-07T20:24:10.771Z,26.70
2018-08-07T20:26:38.858Z,26.70
2018-08-07T20:29:06.915Z,26.70
2018-08-07T20:31:34.923Z,26.70
2018-08-07T20:34:02.790Z,26.70
2018-08-07T20:36:30.356Z,26.70
2018-08-07T20:38:58.438Z,26.70
2018-08-07T20:41:26.443Z,26.70
2018-08-07T20:43:55.278Z,26.70
2018-08-07T20:46:23.425Z,26.70
2018-08-07T20:48:51.374Z,26.70
2018-08-07T20:51:19.236Z,26.70
2018-08-07T20:53:47.698Z,26.70
2018-08-07T20:56:15.221Z,26.70
2018-08-07T20:58:43.238Z,26.70
2018-08-07T21:01:10.804Z,26.70
2018-08-07T21:03:38.875Z,26.70
2018-08-07T21:06:06.464Z,26.70
2018-08-07T21:08:34.474Z,26.70
2018-08-07T21:11:02.013Z,26.70
2018-08-07T21:13:29.494Z,26.70
2018-08-07T21:15:57.781Z,26.70
2018-08-07T21:18:35.064Z,26.70
2018-08-07T21:21:02.548Z,26.70
2018-08-07T21:23:30.025Z,26.60
2018-08-07T21:26:14.920Z,26.70
2018-08-07T21:28:42.459Z,26.70
2018-08-07T21:31:09.889Z,26.70
2018-08-07T21:33:37.373Z,26.70
2018-08-07T21:36:04.861Z,26.70
2018-08-07T21:38:32.348Z,26.70
2018-08-07T21:43:27.136Z,26.70
2018-08-07T21:45:54.786Z,26.70
2018-08-07T21:48:22.293Z,26.70
2018-08-07T21:50:49.753Z,26.60
2018-08-07T21:53:17.232Z,26.70
2018-08-07T21:55:44.716Z,26.70
2018-08-07T21:58:12.191Z,26.70
2018-08-07T22:00:41.591Z,26.70
2018-08-07T22:03:09.056Z,26.70
2018-08-07T22:05:36.544Z,26.70
2018-08-07T22:08:04.206Z,26.70
2018-08-07T22:10:31.681Z,26.70
2018-08-07T22:12:59.205Z,26.70
2018-08-07T22:15:26.689Z,26.70
2018-08-07T22:17:54.144Z,26.70
2018-08-07T22:20:21.616Z,26.70
2018-08-07T22:22:49.116Z,26.70
2018-08-07T22:25:16.581Z,26.70
2018-08-07T22:27:44.057Z,26.70
2018-08-07T22:30:13.708Z,26.70
2018-08-07T22:32:41.186Z,26.70
2018-08-07T22:35:08.868Z,26.70
2018-08-07T22:37:36.504Z,26.70
2018-08-07T22:40:04.489Z,26.70
2018-08-07T22:42:31.952Z,26.70
2018-08-07T22:44:59.422Z,26.70
2018-08-07T22:47:26.892Z,26.70
2018-08-07T22:49:55.413Z,26.70
2018-08-07T22:52:23.103Z,26.70
2018-08-07T22:54:50.612Z,26.70
2018-08-07T22:57:18.080Z,26.70
2018-08-07T22:59:45.668Z,26.70
2018-08-07T23:02:13.128Z,26.70
2018-08-07T23:04:40.597Z,26.70
2018-08-07T23:07:08.088Z,26.70
2018-08-07T23:09:35.578Z,26.60
2018-08-07T23:12:03.045Z,26.60
2018-08-07T23:14:30.506Z,26.60
2018-08-07T23:16:57.979Z,26.70
2018-08-07T23:19:25.482Z,26.70
2018-08-07T23:21:52.944Z,26.60
2018-08-07T23:24:20.417Z,26.70
2018-08-07T23:26:47.882Z,26.70
2018-08-07T23:29:15.353Z,26.70
2018-08-07T23:31:43.014Z,26.70
2018-08-07T23:34:10.480Z,26.70
2018-08-07T23:36:38.206Z,26.70
2018-08-07T23:39:06.846Z,26.70
2018-08-07T23:41:34.321Z,26.70
2018-08-07T23:44:01.801Z,26.70
2018-08-07T23:46:29.284Z,26.70
2018-08-07T23:48:56.749Z,26.70
2018-08-07T23:51:24.238Z,26.60
2018-08-07T23:53:51.709Z,26.70
2018-08-07T23:56:19.369Z,26.70
2018-08-07T23:58:46.840Z,26.70
